createdAt,value
2017-05-24T00:01:10.881Z,0
2017-05-24T00:02:24.446Z,0
2017-05-24T00:03:38.064Z,0
2017-05-24T00:04:51.702Z,0
2017-05-24T00:06:05.581Z,0
2017-05-24T00:07:19.633Z,0
2017-05-24T00:08:33.600Z,0
2017-05-24T00:09:47.527Z,0
2017-05-24T00:11:02.672Z,0
2017-05-24T00:12:16.527Z,0
2017-05-24T00:13:30.190Z,0
2017-05-24T00:14:43.921Z,0
2017-05-24T00:15:57.792Z,0
2017-05-24T00:17:11.331Z,0
2017-05-24T00:18:25.541Z,0
2017-05-24T00:19:39.468Z,0
2017-05-24T00:20:53.150Z,0
2017-05-24T00:22:07.053Z,0
2017-05-24T00:23:20.912Z,0
2017-05-24T00:24:34.829Z,0
2017-05-24T00:25:48.371Z,0
2017-05-24T00:27:01.935Z,0
2017-05-24T00:28:15.488Z,0
2017-05-24T00:29:29.067Z,0
2017-05-24T00:30:42.969Z,0
2017-05-24T00:31:56.537Z,0
2017-05-24T00:33:10.099Z,0
2017-05-24T00:34:24.045Z,0
2017-05-24T00:35:38.315Z,0
2017-05-24T00:36:52.268Z,0
2017-05-24T00:38:05.831Z,0
2017-05-24T00:39:19.681Z,0
2017-05-24T00:40:33.337Z,0
2017-05-24T00:41:47.223Z,0
2017-05-24T00:43:01.066Z,0
2017-05-24T00:44:14.623Z,0
2017-05-24T00:45:28.277Z,0
2017-05-24T00:46:42.143Z,0
2017-05-24T00:47:55.687Z,0
2017-05-24T00:49:09.710Z,0
2017-05-24T00:50:23.288Z,0
2017-05-24T00:51:36.963Z,0
2017-05-24T00:52:50.529Z,0
2017-05-24T00:54:04.074Z,0
2017-05-24T00:55:18.318Z,0
2017-05-24T00:56:32.115Z,0
2017-05-24T00:57:45.691Z,0
2017-05-24T00:58:59.253Z,0
2017-05-24T01:00:12.805Z,0
2017-05-24T01:01:26.751Z,0
2017-05-24T01:02:40.803Z,0
2017-05-24T01:03:54.368Z,0
2017-05-24T01:05:08.312Z,0
2017-05-24T01:06:21.877Z,0
2017-05-24T01:07:36.489Z,0
2017-05-24T01:08:50.057Z,0
2017-05-24T01:10:04.117Z,0
2017-05-24T01:11:17.655Z,0
2017-05-24T01:12:31.656Z,0
2017-05-24T01:13:46.165Z,0
2017-05-24T01:15:00.066Z,0
2017-05-24T01:16:13.678Z,0
2017-05-24T01:17:27.285Z,0
2017-05-24T01:18:40.834Z,0
2017-05-24T01:19:54.727Z,0
2017-05-24T01:21:08.296Z,0
2017-05-24T01:22:22.555Z,0
2017-05-24T01:23:36.100Z,0
2017-05-24T01:24:49.716Z,0
2017-05-24T01:26:03.659Z,0
2017-05-24T01:27:17.346Z,0
2017-05-24T01:28:30.962Z,0
2017-05-24T01:29:44.557Z,0
2017-05-24T01:30:58.148Z,0
2017-05-24T01:32:12.227Z,0
2017-05-24T01:33:26.195Z,0
2017-05-24T01:34:39.753Z,0
2017-05-24T01:35:53.299Z,0
2017-05-24T01:37:06.870Z,0
2017-05-24T01:38:20.926Z,0
2017-05-24T01:39:34.878Z,0
2017-05-24T01:40:48.429Z,0
2017-05-24T01:42:01.951Z,0
2017-05-24T01:43:15.501Z,0
2017-05-24T01:44:29.366Z,0
2017-05-24T01:45:43.006Z,0
2017-05-24T01:46:56.685Z,0
2017-05-24T01:48:10.233Z,0
2017-05-24T01:49:23.839Z,0
2017-05-24T01:50:37.702Z,0
2017-05-24T01:51:51.266Z,0
2017-05-24T01:53:04.792Z,0
2017-05-24T01:54:18.351Z,0
2017-05-24T01:55:32.033Z,0
2017-05-24T01:56:45.931Z,0
2017-05-24T01:57:59.501Z,0
2017-05-24T01:59:13.108Z,0
2017-05-24T02:00:26.715Z,0
2017-05-24T02:01:40.574Z,0
2017-05-24T02:02:55.209Z,0
2017-05-24T02:04:08.930Z,0
2017-05-24T02:05:22.535Z,0
2017-05-24T02:06:36.414Z,0
2017-05-24T02:07:49.978Z,0
2017-05-24T02:09:03.849Z,0
2017-05-24T02:10:17.898Z,0
2017-05-24T02:11:31.448Z,0
2017-05-24T02:12:45.051Z,0
2017-05-24T02:13:58.622Z,0
2017-05-24T02:15:12.481Z,0
2017-05-24T02:16:26.392Z,0
2017-05-24T02:17:40.383Z,0
2017-05-24T02:18:53.977Z,0
2017-05-24T02:20:07.525Z,0
2017-05-24T02:21:21.659Z,0
2017-05-24T02:22:35.216Z,0
2017-05-24T02:23:48.792Z,0
2017-05-24T02:25:02.855Z,0
2017-05-24T02:26:16.375Z,0
2017-05-24T02:27:30.696Z,0
2017-05-24T02:28:44.235Z,0
2017-05-24T02:29:57.792Z,0
2017-05-24T02:31:11.525Z,0
2017-05-24T02:32:25.110Z,0
2017-05-24T02:33:38.938Z,0
2017-05-24T02:34:52.519Z,0
2017-05-24T02:36:06.097Z,0
2017-05-24T02:37:20.004Z,0
2017-05-24T02:38:33.882Z,0
2017-05-24T02:39:47.878Z,0
2017-05-24T02:41:02.113Z,0
2017-05-24T02:42:16.176Z,0
2017-05-24T02:43:29.764Z,0
2017-05-24T02:44:43.633Z,0
2017-05-24T02:45:57.672Z,0
2017-05-24T02:47:11.224Z,0
2017-05-24T02:48:25.516Z,0
2017-05-24T02:49:39.053Z,4
2017-05-24T02:50:52.917Z,4
2017-05-24T02:52:07.481Z,4
2017-05-24T02:53:21.452Z,0
2017-05-24T02:54:35.239Z,4
2017-05-24T02:55:48.764Z,4
2017-05-24T02:57:02.673Z,8
2017-05-24T02:58:17.023Z,4
2017-05-24T02:59:30.720Z,4
2017-05-24T03:00:44.626Z,8
2017-05-24T03:01:58.479Z,12
2017-05-24T03:03:12.157Z,12
2017-05-24T03:04:26.069Z,16
2017-05-24T03:05:39.620Z,12
2017-05-24T03:06:53.350Z,16
2017-05-24T03:08:06.878Z,20
2017-05-24T03:09:20.484Z,24
2017-05-24T03:10:34.339Z,28
2017-05-24T03:11:47.982Z,32
2017-05-24T03:13:01.551Z,36
2017-05-24T03:14:15.399Z,40
2017-05-24T03:15:29.329Z,44
2017-05-24T03:16:43.263Z,48
2017-05-24T03:17:57.239Z,52
2017-05-24T03:19:10.810Z,60
2017-05-24T03:20:24.752Z,68
2017-05-24T03:21:38.536Z,76
2017-05-24T03:22:52.556Z,88
2017-05-24T03:24:06.457Z,100
2017-05-24T03:25:20.042Z,108
2017-05-24T03:26:33.599Z,120
2017-05-24T03:27:47.367Z,132
2017-05-24T03:29:01.278Z,140
2017-05-24T03:30:14.915Z,152
2017-05-24T03:31:28.530Z,164
2017-05-24T03:32:42.071Z,176
2017-05-24T03:33:55.744Z,192
2017-05-24T03:35:09.695Z,208
2017-05-24T03:36:23.409Z,224
2017-05-24T03:37:37.285Z,240
2017-05-24T03:38:51.014Z,264
2017-05-24T03:40:04.724Z,280
2017-05-24T03:41:18.770Z,296
2017-05-24T03:42:32.365Z,316
2017-05-24T03:43:46.658Z,332
2017-05-24T03:45:00.749Z,352
2017-05-24T03:46:14.374Z,376
2017-05-24T03:47:28.296Z,392
2017-05-24T03:48:42.273Z,416
2017-05-24T03:49:55.963Z,432
2017-05-24T03:51:09.507Z,452
2017-05-24T03:52:23.172Z,476
2017-05-24T03:53:37.083Z,520
2017-05-24T03:54:51.555Z,576
2017-05-24T03:56:05.208Z,548
2017-05-24T03:57:18.792Z,544
2017-05-24T03:58:32.460Z,564
2017-05-24T03:59:46.721Z,584
2017-05-24T04:01:00.418Z,656
2017-05-24T04:02:14.048Z,664
2017-05-24T04:03:27.940Z,720
2017-05-24T04:04:41.581Z,676
2017-05-24T04:05:55.482Z,676
2017-05-24T04:07:09.100Z,684
2017-05-24T04:08:22.708Z,700
2017-05-24T04:09:36.406Z,720
2017-05-24T04:10:50.349Z,756
2017-05-24T04:12:04.564Z,804
2017-05-24T04:13:18.198Z,868
2017-05-24T04:14:32.460Z,968
2017-05-24T04:15:46.146Z,1144
2017-05-24T04:17:00.066Z,1868
2017-05-24T04:18:14.370Z,1724
2017-05-24T04:19:28.616Z,1820
2017-05-24T04:20:42.233Z,4288
2017-05-24T04:21:56.150Z,5100
2017-05-24T04:23:15.953Z,4444
2017-05-24T04:24:33.398Z,5972
2017-05-24T04:25:48.091Z,6404
2017-05-24T04:27:02.946Z,6600
2017-05-24T04:28:33.193Z,6876
2017-05-24T04:29:49.591Z,8428
2017-05-24T04:31:06.549Z,10172
2017-05-24T04:32:24.234Z,11368
2017-05-24T04:33:39.517Z,11212
2017-05-24T04:34:55.352Z,8712
2017-05-24T04:36:10.977Z,7464
2017-05-24T04:37:27.871Z,2136
2017-05-24T04:38:45.544Z,2212
2017-05-24T04:40:01.043Z,2556
2017-05-24T04:41:16.095Z,3104
2017-05-24T04:42:30.128Z,3488
2017-05-24T04:43:44.172Z,8432
2017-05-24T04:44:57.738Z,13088
2017-05-24T04:46:11.716Z,10372
2017-05-24T04:47:25.264Z,14656
2017-05-24T04:48:39.636Z,17504
2017-05-24T04:49:53.593Z,15840
2017-05-24T04:51:07.591Z,15616
2017-05-24T04:52:21.206Z,17408
2017-05-24T04:53:34.823Z,17664
2017-05-24T04:54:49.034Z,17248
2017-05-24T04:56:02.707Z,17504
2017-05-24T04:57:16.640Z,16928
2017-05-24T04:58:30.560Z,16608
2017-05-24T04:59:44.784Z,16384
2017-05-24T05:00:58.769Z,17408
2017-05-24T05:02:12.365Z,21312
2017-05-24T05:03:26.077Z,25248
2017-05-24T05:04:39.720Z,23520
2017-05-24T05:05:53.358Z,20736
2017-05-24T05:07:07.607Z,20672
2017-05-24T05:08:21.325Z,25472
2017-05-24T05:09:35.163Z,22176
2017-05-24T05:10:48.759Z,17408
2017-05-24T05:12:02.446Z,14608
2017-05-24T05:13:16.368Z,22208
2017-05-24T05:14:29.935Z,26240
2017-05-24T05:15:43.572Z,21760
2017-05-24T05:16:57.169Z,17088
2017-05-24T05:18:10.860Z,23616
2017-05-24T05:19:24.845Z,26784
2017-05-24T05:20:38.495Z,35968
2017-05-24T05:21:52.313Z,38496
2017-05-24T05:23:05.946Z,36288
2017-05-24T05:24:19.671Z,33536
2017-05-24T05:25:34.015Z,28896
2017-05-24T05:26:48.709Z,10760
2017-05-24T05:28:02.824Z,7508
2017-05-24T05:29:16.853Z,5380
2017-05-24T05:30:30.626Z,5296
2017-05-24T05:31:44.921Z,4844
2017-05-24T05:32:58.495Z,4672
2017-05-24T05:34:12.111Z,4596
2017-05-24T05:35:26.131Z,4356
2017-05-24T05:36:39.743Z,4204
2017-05-24T05:37:54.051Z,3640
2017-05-24T05:39:08.010Z,4480
2017-05-24T05:40:21.621Z,4792
2017-05-24T05:41:35.244Z,5056
2017-05-24T05:42:48.936Z,5292
2017-05-24T05:44:02.915Z,5420
2017-05-24T05:45:16.918Z,4576
2017-05-24T05:46:37.113Z,4216
2017-05-24T05:47:51.330Z,4448
2017-05-24T05:49:05.278Z,4308
2017-05-24T05:50:19.242Z,4496
2017-05-24T05:51:32.804Z,4656
2017-05-24T05:52:46.386Z,4792
2017-05-24T05:54:00.002Z,4952
2017-05-24T05:55:13.658Z,5120
2017-05-24T05:56:27.981Z,5084
2017-05-24T05:57:42.009Z,4704
2017-05-24T05:58:55.624Z,5012
2017-05-24T06:00:09.314Z,5192
2017-05-24T06:01:24.249Z,5020
2017-05-24T06:02:38.482Z,5040
2017-05-24T06:03:52.614Z,4880
2017-05-24T06:05:07.059Z,4548
2017-05-24T06:06:20.724Z,5456
2017-05-24T06:12:00.854Z,3920
2017-05-24T06:13:14.550Z,3800
2017-05-24T06:14:28.172Z,3604
2017-05-24T06:15:41.830Z,3704
2017-05-24T06:16:56.056Z,4444
2017-05-24T06:18:09.785Z,4480
2017-05-24T06:19:23.411Z,3388
2017-05-24T06:20:37.096Z,3640
2017-05-24T06:21:50.739Z,4384
2017-05-24T06:23:04.630Z,4608
2017-05-24T06:24:18.274Z,4620
2017-05-24T06:25:31.968Z,4708
2017-05-24T06:26:45.652Z,4644
2017-05-24T06:27:59.380Z,4656
2017-05-24T06:29:13.521Z,4652
2017-05-24T06:30:27.183Z,4672
2017-05-24T06:31:40.777Z,4644
2017-05-24T06:32:54.790Z,4580
2017-05-24T06:34:08.825Z,4560
2017-05-24T06:35:23.096Z,4564
2017-05-24T06:36:36.723Z,4540
2017-05-24T06:37:50.269Z,4520
2017-05-24T06:39:03.941Z,4500
2017-05-24T06:40:17.909Z,4500
2017-05-24T06:41:32.578Z,4540
2017-05-24T06:42:46.562Z,4572
2017-05-24T06:44:00.186Z,4616
2017-05-24T06:45:14.488Z,4612
2017-05-24T06:46:28.077Z,4640
2017-05-24T06:47:42.079Z,4744
2017-05-24T06:48:55.717Z,4836
2017-05-24T06:50:09.366Z,4896
2017-05-24T06:51:23.457Z,4936
2017-05-24T06:52:37.255Z,4968
2017-05-24T06:53:51.552Z,5060
2017-05-24T06:55:05.511Z,5044
2017-05-24T06:56:19.517Z,4932
2017-05-24T06:57:33.575Z,4640
2017-05-24T06:58:47.175Z,4736
2017-05-24T07:00:01.124Z,4744
2017-05-24T07:01:14.816Z,4720
2017-05-24T07:02:28.529Z,4820
2017-05-24T07:03:42.242Z,4984
2017-05-24T07:04:56.261Z,5276
2017-05-24T07:06:10.189Z,5608
2017-05-24T07:07:24.108Z,5920
2017-05-24T07:08:38.035Z,6020
2017-05-24T07:09:52.036Z,6236
2017-05-24T07:11:05.686Z,6820
2017-05-24T07:12:19.575Z,7052
2017-05-24T07:13:33.707Z,6756
2017-05-24T07:14:47.380Z,7016
2017-05-24T07:16:01.707Z,7036
2017-05-24T07:17:15.455Z,7468
2017-05-24T07:18:29.867Z,7348
2017-05-24T07:19:43.837Z,7192
2017-05-24T07:20:57.552Z,7632
2017-05-24T07:22:11.146Z,7400
2017-05-24T07:23:24.876Z,7396
2017-05-24T07:24:38.833Z,6960
2017-05-24T07:25:52.493Z,7468
2017-05-24T07:27:06.465Z,8696
2017-05-24T07:28:20.067Z,8740
2017-05-24T07:29:33.844Z,8568
2017-05-24T07:30:47.479Z,9040
2017-05-24T07:32:01.152Z,8416
2017-05-24T07:33:15.107Z,6512
2017-05-24T07:34:28.795Z,6252
2017-05-24T07:35:42.810Z,6552
2017-05-24T07:36:56.840Z,6404
2017-05-24T07:38:10.798Z,5988
2017-05-24T07:39:24.600Z,6192
2017-05-24T07:40:38.659Z,6388
2017-05-24T07:41:52.369Z,5368
2017-05-24T07:43:06.760Z,6268
2017-05-24T07:46:47.973Z,6176
2017-05-24T07:48:01.795Z,5852
2017-05-24T07:49:15.576Z,4848
2017-05-24T07:50:29.472Z,4936
2017-05-24T07:51:43.647Z,6660
2017-05-24T07:53:04.045Z,7464
2017-05-24T07:54:19.764Z,7708
2017-05-24T07:55:33.898Z,6216
2017-05-24T07:56:47.817Z,5844
2017-05-24T07:58:01.687Z,5556
2017-05-24T07:59:15.931Z,5508
2017-05-24T08:00:29.830Z,5404
2017-05-24T08:01:44.007Z,5132
2017-05-24T08:02:57.880Z,5816
2017-05-24T08:04:12.129Z,6588
2017-05-24T08:05:27.347Z,6208
2017-05-24T08:06:41.981Z,7056
2017-05-24T08:07:55.777Z,8480
2017-05-24T08:09:09.669Z,8476
2017-05-24T08:10:23.475Z,8540
2017-05-24T08:11:37.498Z,7128
2017-05-24T08:12:51.681Z,6796
2017-05-24T08:14:06.734Z,6040
2017-05-24T08:15:21.262Z,6904
2017-05-24T08:16:35.094Z,6448
2017-05-24T08:17:49.565Z,5840
2017-05-24T08:19:04.075Z,5252
2017-05-24T08:20:18.201Z,4788
2017-05-24T08:21:32.715Z,4688
2017-05-24T08:22:46.596Z,5576
2017-05-24T08:24:00.715Z,5232
2017-05-24T08:25:14.523Z,6084
2017-05-24T08:26:29.357Z,6580
2017-05-24T08:27:43.095Z,6416
2017-05-24T08:28:56.883Z,5856
2017-05-24T08:30:12.011Z,7196
2017-05-24T08:31:26.911Z,8624
2017-05-24T08:32:41.243Z,8852
2017-05-24T08:33:55.129Z,9368
2017-05-24T08:35:09.009Z,8344
2017-05-24T08:36:23.813Z,8456
2017-05-24T08:37:38.314Z,9140
2017-05-24T08:38:52.254Z,9528
2017-05-24T08:40:06.084Z,8356
2017-05-24T08:41:19.959Z,7752
2017-05-24T08:42:34.179Z,7592
2017-05-24T08:43:48.116Z,6872
2017-05-24T08:45:01.856Z,6784
2017-05-24T08:46:15.729Z,7672
2017-05-24T08:47:29.550Z,8216
2017-05-24T08:48:43.662Z,8796
2017-05-24T08:49:57.533Z,9176
2017-05-24T08:51:12.400Z,10116
2017-05-24T08:52:26.485Z,10688
2017-05-24T08:53:40.316Z,9836
2017-05-24T08:54:54.617Z,9968
2017-05-24T08:56:08.557Z,9988
2017-05-24T08:57:22.541Z,10052
2017-05-24T08:58:36.309Z,10196
2017-05-24T08:59:50.169Z,9952
2017-05-24T09:01:04.347Z,8804
2017-05-24T09:02:18.492Z,8460
2017-05-24T09:03:33.846Z,7976
2017-05-24T09:04:48.033Z,7520
2017-05-24T09:06:01.856Z,7256
2017-05-24T09:07:16.142Z,6984
2017-05-24T09:08:29.968Z,7024
2017-05-24T09:09:44.147Z,6872
2017-05-24T09:10:58.116Z,6692
2017-05-24T09:12:12.559Z,6540
2017-05-24T09:13:28.097Z,6536
2017-05-24T09:14:42.244Z,6484
2017-05-24T09:15:56.477Z,6632
2017-05-24T09:17:10.216Z,6852
2017-05-24T09:18:24.557Z,6984
2017-05-24T09:19:39.118Z,6864
2017-05-24T09:20:53.338Z,6860
2017-05-24T09:22:07.308Z,6956
2017-05-24T09:23:21.465Z,7048
2017-05-24T09:24:35.239Z,6892
2017-05-24T09:25:49.461Z,6936
2017-05-24T09:27:03.631Z,6940
2017-05-24T09:28:17.384Z,6932
2017-05-24T09:29:31.680Z,7352
2017-05-24T09:30:45.614Z,7752
2017-05-24T09:31:59.775Z,8548
2017-05-24T09:33:13.790Z,7264
2017-05-24T09:34:29.554Z,7016
2017-05-24T09:35:43.355Z,7212
2017-05-24T09:36:57.219Z,8144
2017-05-24T09:38:11.429Z,9692
2017-05-24T09:39:25.398Z,9236
2017-05-24T09:40:39.122Z,8736
2017-05-24T09:41:54.286Z,7836
2017-05-24T09:43:08.435Z,7964
2017-05-24T09:44:22.556Z,7800
2017-05-24T09:45:36.432Z,6500
2017-05-24T09:46:50.511Z,6960
2017-05-24T09:48:04.267Z,7648
2017-05-24T09:49:18.698Z,7116
2017-05-24T09:50:34.681Z,6984
2017-05-24T09:51:48.435Z,6672
2017-05-24T09:53:02.284Z,5660
2017-05-24T09:54:16.704Z,5296
2017-05-24T09:55:32.274Z,6600
2017-05-24T09:56:45.988Z,7976
2017-05-24T09:57:59.872Z,7840
2017-05-24T09:59:14.067Z,6996
2017-05-24T10:00:27.817Z,7472
2017-05-24T10:01:41.602Z,8432
2017-05-24T10:02:55.821Z,8972
2017-05-24T10:04:09.581Z,9100
2017-05-24T10:05:24.451Z,8496
2017-05-24T10:06:38.242Z,7720
2017-05-24T10:07:52.297Z,6740
2017-05-24T10:09:06.384Z,6264
2017-05-24T10:10:20.434Z,7624
2017-05-24T10:11:34.599Z,7944
2017-05-24T10:12:48.332Z,8116
2017-05-24T10:14:02.115Z,7796
2017-05-24T10:15:16.679Z,7612
2017-05-24T10:16:30.776Z,6772
2017-05-24T10:17:45.250Z,6468
2017-05-24T10:18:59.460Z,7104
2017-05-24T10:20:13.219Z,8264
2017-05-24T10:21:27.347Z,7736
2017-05-24T10:22:41.618Z,6816
2017-05-24T10:23:56.176Z,6164
2017-05-24T10:25:09.908Z,5276
2017-05-24T10:26:24.247Z,5128
2017-05-24T10:27:38.378Z,5764
2017-05-24T10:28:52.271Z,4876
2017-05-24T10:30:06.146Z,3264
2017-05-24T10:31:21.067Z,2700
2017-05-24T10:32:34.909Z,2880
2017-05-24T10:33:48.982Z,3112
2017-05-24T10:35:02.724Z,2664
2017-05-24T10:36:16.935Z,2168
2017-05-24T10:37:30.723Z,1988
2017-05-24T10:38:45.227Z,2128
2017-05-24T10:39:58.945Z,2480
2017-05-24T10:41:12.731Z,2632
2017-05-24T10:42:26.776Z,2708
2017-05-24T10:43:40.777Z,3052
2017-05-24T10:44:54.546Z,2908
2017-05-24T10:46:08.313Z,2732
2017-05-24T10:47:22.065Z,2236
2017-05-24T10:48:36.264Z,2016
2017-05-24T10:49:49.986Z,1944
2017-05-24T10:51:04.192Z,1968
2017-05-24T10:52:19.161Z,2092
2017-05-24T10:53:32.978Z,2316
2017-05-24T10:54:46.706Z,2472
2017-05-24T10:56:00.443Z,2396
2017-05-24T10:57:14.388Z,2464
2017-05-24T10:58:28.140Z,2684
2017-05-24T10:59:41.937Z,2928
2017-05-24T11:00:56.024Z,3716
2017-05-24T11:02:09.887Z,4400
2017-05-24T11:03:23.994Z,5244
2017-05-24T11:04:37.779Z,6208
2017-05-24T11:05:51.536Z,5596
2017-05-24T11:07:05.271Z,4736
2017-05-24T11:08:18.988Z,6436
2017-05-24T11:09:33.117Z,7212
2017-05-24T11:10:47.231Z,6388
2017-05-24T11:12:00.973Z,5712
2017-05-24T11:13:14.725Z,6104
2017-05-24T11:14:30.321Z,6792
2017-05-24T11:15:44.418Z,7428
2017-05-24T11:16:58.217Z,7176
2017-05-24T11:18:11.951Z,7020
2017-05-24T11:19:25.709Z,8352
2017-05-24T11:20:39.604Z,8200
2017-05-24T11:21:53.384Z,7728
2017-05-24T11:23:07.747Z,8464
2017-05-24T11:24:21.931Z,8240
2017-05-24T11:25:35.668Z,6840
2017-05-24T11:26:49.738Z,6260
2017-05-24T11:28:03.629Z,6180
2017-05-24T11:29:18.250Z,6340
2017-05-24T11:30:32.237Z,5912
2017-05-24T11:31:47.820Z,4852
2017-05-24T11:33:01.954Z,4576
2017-05-24T11:34:16.039Z,3868
2017-05-24T11:35:30.424Z,3416
2017-05-24T11:36:44.838Z,2960
2017-05-24T11:37:58.629Z,2576
2017-05-24T11:39:12.376Z,2360
2017-05-24T11:40:26.194Z,2220
2017-05-24T11:41:40.680Z,2184
2017-05-24T11:42:54.595Z,2204
2017-05-24T11:44:09.042Z,1928
2017-05-24T11:45:23.218Z,1856
2017-05-24T11:46:36.993Z,1976
2017-05-24T11:47:52.054Z,2028
2017-05-24T11:49:06.854Z,2168
2017-05-24T11:50:20.661Z,2260
2017-05-24T11:51:34.747Z,2592
2017-05-24T11:52:48.497Z,2860
2017-05-24T11:54:02.577Z,3232
2017-05-24T11:55:17.046Z,4012
2017-05-24T11:56:30.863Z,4876
2017-05-24T11:57:44.969Z,5272
2017-05-24T11:58:59.433Z,5076
2017-05-24T12:00:14.128Z,4916
2017-05-24T12:01:28.622Z,4768
2017-05-24T12:02:42.419Z,4940
2017-05-24T12:03:56.556Z,4868
2017-05-24T12:05:10.360Z,4452
2017-05-24T12:06:25.681Z,4536
2017-05-24T12:07:41.863Z,4068
2017-05-24T12:08:55.715Z,3400
2017-05-24T12:10:09.912Z,3196
2017-05-24T12:11:23.869Z,3320
2017-05-24T12:12:41.684Z,3056
2017-05-24T12:13:56.794Z,2808
2017-05-24T12:15:11.565Z,2860
2017-05-24T12:16:25.909Z,3340
2017-05-24T12:17:40.020Z,3476
2017-05-24T12:18:53.788Z,3612
2017-05-24T12:20:08.846Z,3864
2017-05-24T12:21:22.844Z,3908
2017-05-24T12:22:36.931Z,3816
2017-05-24T12:23:50.669Z,4404
2017-05-24T12:25:04.435Z,5448
2017-05-24T12:26:18.814Z,5844
2017-05-24T12:27:33.360Z,5000
2017-05-24T12:28:47.537Z,4804
2017-05-24T12:30:01.963Z,5160
2017-05-24T12:31:16.009Z,5208
2017-05-24T12:32:30.206Z,4436
2017-05-24T12:33:43.996Z,3644
2017-05-24T12:34:58.462Z,3244
2017-05-24T12:36:14.870Z,3036
2017-05-24T12:37:28.959Z,2836
2017-05-24T12:38:42.742Z,2552
2017-05-24T12:39:56.620Z,2476
2017-05-24T12:41:10.363Z,2612
2017-05-24T12:42:24.196Z,2692
2017-05-24T12:43:38.315Z,2404
2017-05-24T12:44:52.094Z,1984
2017-05-24T12:46:05.889Z,1728
2017-05-24T12:47:20.048Z,1616
2017-05-24T12:48:33.856Z,1472
2017-05-24T12:49:48.305Z,1404
2017-05-24T12:51:02.049Z,1288
2017-05-24T12:52:15.767Z,1208
2017-05-24T12:53:29.605Z,1200
2017-05-24T12:54:43.687Z,1316
2017-05-24T12:55:58.044Z,1540
2017-05-24T12:57:11.776Z,1616
2017-05-24T12:58:25.917Z,1456
2017-05-24T12:59:39.645Z,1360
2017-05-24T13:00:54.075Z,1420
2017-05-24T13:02:08.112Z,1384
2017-05-24T13:03:22.593Z,1364
2017-05-24T13:04:36.408Z,1436
2017-05-24T13:05:50.501Z,1540
2017-05-24T13:07:04.294Z,1420
2017-05-24T13:08:19.862Z,1256
2017-05-24T13:09:34.969Z,1272
2017-05-24T13:10:48.785Z,1416
2017-05-24T13:12:02.930Z,1632
2017-05-24T13:13:16.795Z,1840
2017-05-24T13:14:31.211Z,1840
2017-05-24T13:15:45.083Z,1724
2017-05-24T13:16:58.890Z,1712
2017-05-24T13:18:12.628Z,1692
2017-05-24T13:19:26.515Z,1704
2017-05-24T13:20:40.546Z,1676
2017-05-24T13:21:54.957Z,1728
2017-05-24T13:23:08.987Z,2072
2017-05-24T13:24:23.327Z,1816
2017-05-24T13:25:37.299Z,1544
2017-05-24T13:26:51.677Z,1468
2017-05-24T13:28:05.480Z,1328
2017-05-24T13:29:19.741Z,1260
2017-05-24T13:30:35.349Z,1328
2017-05-24T13:31:49.598Z,1584
2017-05-24T13:33:04.321Z,1924
2017-05-24T13:34:18.426Z,2328
2017-05-24T13:35:32.638Z,2184
2017-05-24T13:36:46.682Z,1876
2017-05-24T13:38:00.794Z,1760
2017-05-24T13:39:14.850Z,1664
2017-05-24T13:40:29.068Z,1752
2017-05-24T13:41:42.883Z,2208
2017-05-24T13:42:56.965Z,2768
2017-05-24T13:44:10.735Z,2896
2017-05-24T13:45:24.869Z,3392
2017-05-24T13:46:39.005Z,3188
2017-05-24T13:47:52.927Z,2924
2017-05-24T13:49:07.333Z,3480
2017-05-24T13:50:21.136Z,3912
2017-05-24T13:51:35.323Z,3408
2017-05-24T13:52:49.303Z,3188
2017-05-24T13:54:03.088Z,2884
2017-05-24T13:55:17.003Z,2400
2017-05-24T13:56:31.286Z,1900
2017-05-24T13:57:45.661Z,1412
2017-05-24T13:58:59.485Z,1324
2017-05-24T14:00:13.650Z,1584
2017-05-24T14:01:27.465Z,2072
2017-05-24T14:02:41.554Z,2508
2017-05-24T14:03:56.601Z,2904
2017-05-24T14:05:10.384Z,2652
2017-05-24T14:06:24.190Z,2392
2017-05-24T14:07:37.914Z,2280
2017-05-24T14:08:52.421Z,2576
2017-05-24T14:10:07.758Z,2968
2017-05-24T14:11:21.556Z,3264
2017-05-24T14:12:35.377Z,2884
2017-05-24T14:13:49.542Z,2788
2017-05-24T14:15:03.581Z,3148
2017-05-24T14:16:17.989Z,3632
2017-05-24T14:17:32.194Z,3796
2017-05-24T14:18:46.319Z,3264
2017-05-24T14:20:00.130Z,3120
2017-05-24T14:21:14.128Z,3692
2017-05-24T14:22:28.599Z,3416
2017-05-24T14:23:42.672Z,2740
2017-05-24T14:24:56.725Z,2376
2017-05-24T14:26:10.466Z,2440
2017-05-24T14:27:24.259Z,2580
2017-05-24T14:28:40.074Z,2796
2017-05-24T14:29:53.847Z,2684
2017-05-24T14:31:07.602Z,2716
2017-05-24T14:32:21.374Z,2936
2017-05-24T14:33:35.557Z,2688
2017-05-24T14:34:49.624Z,2536
2017-05-24T14:36:03.705Z,2672
2017-05-24T14:37:17.842Z,2752
2017-05-24T14:38:31.733Z,2704
2017-05-24T14:39:45.568Z,2732
2017-05-24T14:41:05.692Z,2388
2017-05-24T14:42:24.676Z,1556
2017-05-24T14:43:39.545Z,1516
2017-05-24T14:44:53.636Z,1768
2017-05-24T14:46:07.799Z,1984
2017-05-24T14:47:21.879Z,1784
2017-05-24T14:48:35.713Z,1920
2017-05-24T14:49:49.461Z,2412
2017-05-24T14:51:03.670Z,2240
2017-05-24T14:52:17.988Z,1876
2017-05-24T14:53:33.283Z,2008
2017-05-24T14:54:48.220Z,1860
2017-05-24T14:56:02.559Z,1160
2017-05-24T14:57:36.796Z,1336
2017-05-24T14:58:51.239Z,1132
2017-05-24T15:00:05.292Z,1012
2017-05-24T15:01:19.425Z,1008
2017-05-24T15:02:33.702Z,980
2017-05-24T15:03:48.232Z,940
2017-05-24T15:05:02.310Z,780
2017-05-24T15:06:16.070Z,624
2017-05-24T15:07:30.711Z,672
2017-05-24T15:08:45.696Z,996
2017-05-24T15:09:59.657Z,1548
2017-05-24T15:11:15.190Z,2412
2017-05-24T15:12:29.260Z,3352
2017-05-24T15:13:43.456Z,3840
2017-05-24T15:14:57.847Z,4652
2017-05-24T15:16:12.997Z,4536
2017-05-24T15:17:27.474Z,4476
2017-05-24T15:18:41.553Z,3312
2017-05-24T15:19:55.530Z,3056
2017-05-24T15:21:09.283Z,3112
2017-05-24T15:22:23.047Z,2744
2017-05-24T15:23:37.089Z,2624
2017-05-24T15:24:50.895Z,2892
2017-05-24T15:26:04.992Z,2644
2017-05-24T15:27:18.750Z,2724
2017-05-24T15:28:33.525Z,2408
2017-05-24T15:29:48.533Z,2060
2017-05-24T15:31:03.489Z,1736
2017-05-24T15:32:18.779Z,1412
2017-05-24T15:33:38.088Z,1192
2017-05-24T15:34:52.682Z,1040
2017-05-24T15:36:08.020Z,976
2017-05-24T15:37:22.275Z,932
2017-05-24T15:38:37.129Z,884
2017-05-24T15:39:54.445Z,916
2017-05-24T15:41:11.153Z,1284
2017-05-24T15:42:28.352Z,1724
2017-05-24T15:43:42.147Z,1500
2017-05-24T15:44:57.745Z,1648
2017-05-24T15:46:11.468Z,2136
2017-05-24T15:47:25.588Z,1748
2017-05-24T15:48:40.208Z,1560
2017-05-24T15:49:54.164Z,1540
2017-05-24T15:51:09.124Z,1784
2017-05-24T15:52:23.248Z,1592
2017-05-24T15:53:37.399Z,1120
2017-05-24T15:54:51.535Z,1024
2017-05-24T15:56:06.945Z,868
2017-05-24T15:57:22.232Z,724
2017-05-24T15:58:37.433Z,792
2017-05-24T15:59:51.601Z,924
2017-05-24T16:01:05.709Z,848
2017-05-24T16:02:20.229Z,768
2017-05-24T16:03:34.325Z,704
2017-05-24T16:04:48.162Z,620
2017-05-24T16:06:02.634Z,556
2017-05-24T16:07:16.887Z,516
2017-05-24T16:08:31.986Z,508
2017-05-24T16:09:45.973Z,476
2017-05-24T16:10:59.725Z,468
2017-05-24T16:12:14.493Z,468
2017-05-24T16:13:29.790Z,400
2017-05-24T16:14:44.516Z,396
2017-05-24T16:15:58.369Z,388
2017-05-24T16:17:12.852Z,352
2017-05-24T16:18:26.649Z,264
2017-05-24T16:19:43.004Z,180
2017-05-24T16:20:56.771Z,152
2017-05-24T16:22:11.078Z,188
2017-05-24T16:23:24.926Z,232
2017-05-24T16:24:39.375Z,256
2017-05-24T16:25:54.210Z,212
2017-05-24T16:27:07.950Z,172
2017-05-24T16:28:22.148Z,156
2017-05-24T16:29:36.358Z,132
2017-05-24T16:30:50.547Z,124
2017-05-24T16:32:05.134Z,144
2017-05-24T16:33:19.845Z,132
2017-05-24T16:34:33.724Z,120
2017-05-24T16:35:47.490Z,136
2017-05-24T16:37:01.570Z,168
2017-05-24T16:38:16.410Z,232
2017-05-24T16:39:30.553Z,384
2017-05-24T16:40:44.533Z,656
2017-05-24T16:41:59.450Z,1000
2017-05-24T16:43:13.798Z,1228
2017-05-24T16:44:27.856Z,1472
2017-05-24T16:45:41.626Z,1560
2017-05-24T16:46:55.757Z,1496
2017-05-24T16:48:09.977Z,1560
2017-05-24T16:49:24.255Z,1868
2017-05-24T16:50:38.374Z,1992
2017-05-24T16:51:52.684Z,1996
2017-05-24T16:53:06.450Z,2104
2017-05-24T16:54:20.525Z,2164
2017-05-24T16:55:35.241Z,2096